Time;durP1;ratioP1;P1;durP2;ratioP2;P2;SDS_P1;SDS_P2;PMS_P1;PMS_P2;Temp;Humidity;BMP_temperature;BMP_pressure;BME280_temperature;BME280_humidity;BME280_pressure;Samples;Min_cycle;Max_cycle;Signal;HPM_P1;HPM_P2
2022/06/28 00:01:51;;;;;;;60.00;4.13;;;;;;;;;;5058809;28;20479;-84
2022/06/28 00:04:19;;;;;;;59.93;4.03;;;;;;;;;;5057781;28;20444;-84
2022/06/28 00:06:47;;;;;;;59.50;3.80;;;;;;;;;;5055416;28;20513;-83
2022/06/28 00:09:16;;;;;;;60.07;4.47;;;;;;;;;;5055648;28;20445;-84
2022/06/28 00:11:43;;;;;;;60.17;4.77;;;;;;;;;;5055340;28;20881;-84
2022/06/28 00:16:52;;;;;;;60.97;4.50;;;;;;;;;;5055440;28;20432;-84
2022/06/28 00:19:20;;;;;;;60.27;4.10;;;;;;;;;;5055265;28;20523;-84
2022/06/28 00:21:47;;;;;;;60.60;4.17;;;;;;;;;;5055460;28;20497;-84
2022/06/28 00:24:16;;;;;;;59.67;4.00;;;;;;;;;;5055294;28;20489;-84
2022/06/28 00:26:43;;;;;;;61.30;4.30;;;;;;;;;;5055867;28;20444;-84
2022/06/28 00:29:11;;;;;;;58.90;3.63;;;;;;;;;;5055393;28;20433;-84
2022/06/28 00:31:38;;;;;;;59.67;4.10;;;;;;;;;;5056032;28;20456;-83
2022/06/28 00:34:05;;;;;;;59.60;4.00;;;;;;;;;;5055786;28;20487;-83
2022/06/28 00:36:33;;;;;;;59.67;3.87;;;;;;;;;;5056217;28;20433;-83
2022/06/28 00:39:00;;;;;;;59.30;4.10;;;;;;;;;;5055440;28;20959;-84
2022/06/28 00:41:29;;;;;;;59.90;4.23;;;;;;;;;;5055551;28;20485;-84
2022/06/28 00:43:57;;;;;;;60.37;4.90;;;;;;;;;;5055924;28;20800;-84
2022/06/28 00:46:25;;;;;;;60.30;4.20;;;;;;;;;;5055790;28;20468;-83
2022/06/28 00:48:52;;;;;;;60.60;4.70;;;;;;;;;;5055685;28;20440;-84
2022/06/28 00:51:19;;;;;;;59.70;3.97;;;;;;;;;;5055453;28;20812;-84
2022/06/28 00:53:46;;;;;;;59.60;4.33;;;;;;;;;;5055228;28;20453;-84
2022/06/28 00:56:14;;;;;;;59.93;3.97;;;;;;;;;;5055316;28;20458;-84
2022/06/28 00:58:42;;;;;;;59.67;4.47;;;;;;;;;;5054983;28;20845;-84
2022/06/28 01:01:10;;;;;;;60.03;4.17;;;;;;;;;;5055100;28;20854;-84
2022/06/28 01:03:37;;;;;;;60.47;4.13;;;;;;;;;;5054895;28;20438;-85
2022/06/28 01:06:05;;;;;;;59.73;4.10;;;;;;;;;;5054599;28;20438;-84
2022/06/28 01:08:33;;;;;;;64.80;5.20;;;;;;;;;;5053753;28;20837;-84
2022/06/28 01:11:18;;;;;;;59.30;3.67;;;;;;;;;;5053767;28;20460;-84
2022/06/28 01:13:47;;;;;;;59.33;3.77;;;;;;;;;;5054471;28;20468;-84
2022/06/28 01:16:14;;;;;;;62.80;4.30;;;;;;;;;;5054745;28;20834;-84
2022/06/28 01:18:42;;;;;;;63.40;4.20;;;;;;;;;;5054811;28;20436;-84
2022/06/28 01:21:10;;;;;;;59.80;4.00;;;;;;;;;;5055443;28;20549;-84
2022/06/28 01:23:39;;;;;;;59.30;4.23;;;;;;;;;;5054439;28;20513;-84
2022/06/28 01:26:06;;;;;;;64.53;4.50;;;;;;;;;;5054556;28;20783;-84
2022/06/28 01:28:33;;;;;;;59.80;4.30;;;;;;;;;;5054493;28;21028;-84
2022/06/28 01:31:01;;;;;;;59.20;3.63;;;;;;;;;;5054359;28;20476;-84
2022/06/28 01:33:28;;;;;;;60.77;4.10;;;;;;;;;;5054381;28;20433;-84
2022/06/28 01:35:55;;;;;;;59.40;4.03;;;;;;;;;;5054085;28;20486;-84
2022/06/28 01:38:23;;;;;;;60.63;4.50;;;;;;;;;;5053564;28;20510;-84
2022/06/28 01:40:52;;;;;;;61.60;4.10;;;;;;;;;;5053745;28;20537;-84
2022/06/28 01:43:20;;;;;;;59.70;4.13;;;;;;;;;;5053763;28;20436;-84
2022/06/28 01:45:47;;;;;;;59.67;4.27;;;;;;;;;;5053839;28;20786;-84
2022/06/28 01:48:17;;;;;;;62.87;5.13;;;;;;;;;;5052514;28;20513;-84
2022/06/28 01:50:45;;;;;;;58.97;3.67;;;;;;;;;;5054194;28;20468;-84
2022/06/28 01:53:12;;;;;;;63.20;4.40;;;;;;;;;;5053843;28;20926;-84
2022/06/28 01:55:40;;;;;;;59.20;3.63;;;;;;;;;;5053521;28;20498;-84
2022/06/28 01:58:09;;;;;;;60.93;4.67;;;;;;;;;;5052379;28;20485;-84
2022/06/28 02:00:36;;;;;;;59.37;3.90;;;;;;;;;;5053024;28;20468;-84
2022/06/28 02:03:04;;;;;;;60.13;4.63;;;;;;;;;;5052749;28;20957;-84
2022/06/28 02:05:31;;;;;;;59.60;4.30;;;;;;;;;;5052666;28;20441;-84
2022/06/28 02:07:59;;;;;;;60.23;4.00;;;;;;;;;;5052474;28;20440;-84
2022/06/28 02:10:26;;;;;;;59.20;3.90;;;;;;;;;;5052649;28;20436;-84
2022/06/28 02:12:54;;;;;;;59.87;3.90;;;;;;;;;;5052671;28;20943;-84
2022/06/28 02:15:22;;;;;;;59.00;3.73;;;;;;;;;;5052595;28;20506;-84
2022/06/28 02:17:50;;;;;;;60.77;3.93;;;;;;;;;;5052625;28;20494;-84
2022/06/28 02:20:17;;;;;;;59.30;3.87;;;;;;;;;;5053013;28;20459;-84
2022/06/28 02:22:44;;;;;;;60.20;4.50;;;;;;;;;;5052654;28;20966;-84
2022/06/28 02:25:12;;;;;;;61.40;4.33;;;;;;;;;;5052781;28;20469;-84
2022/06/28 02:27:39;;;;;;;59.67;4.20;;;;;;;;;;5052405;28;20634;-83
2022/06/28 02:30:07;;;;;;;59.37;3.60;;;;;;;;;;5053770;28;20432;-84
2022/06/28 02:32:36;;;;;;;59.90;3.80;;;;;;;;;;5053597;28;20479;-83
2022/06/28 02:40:32;;;;;;;59.87;4.13;;;;;;;;;;5070109;28;20508;-84
2022/06/28 02:43:00;;;;;;;59.57;3.90;;;;;;;;;;5063650;28;20481;-84
2022/06/28 02:45:28;;;;;;;59.50;3.63;;;;;;;;;;5063811;28;20518;-84
2022/06/28 02:47:57;;;;;;;60.70;4.10;;;;;;;;;;5063919;28;20428;-84
2022/06/28 02:50:25;;;;;;;59.27;3.93;;;;;;;;;;5057915;28;20854;-84
2022/06/28 02:52:52;;;;;;;61.63;4.17;;;;;;;;;;5059489;28;20423;-84
2022/06/28 02:55:19;;;;;;;59.50;4.00;;;;;;;;;;5054687;28;20452;-84
2022/06/28 02:57:47;;;;;;;59.27;3.60;;;;;;;;;;5052060;28;20489;-84
2022/06/28 03:00:15;;;;;;;64.40;3.90;;;;;;;;;;5052263;28;20440;-84
2022/06/28 03:02:43;;;;;;;60.20;3.90;;;;;;;;;;5052403;28;20480;-84
2022/06/28 03:05:13;;;;;;;59.47;3.90;;;;;;;;;;5052522;28;20451;-84
2022/06/28 03:07:40;;;;;;;58.73;3.30;;;;;;;;;;5052270;28;20442;-84
2022/06/28 03:10:08;;;;;;;59.40;3.60;;;;;;;;;;5052246;28;20993;-84
2022/06/28 03:12:35;;;;;;;59.10;3.27;;;;;;;;;;5052394;28;20446;-84
2022/06/28 03:15:03;;;;;;;59.17;3.53;;;;;;;;;;5052463;28;20493;-84
2022/06/28 03:17:30;;;;;;;59.37;3.57;;;;;;;;;;5052205;28;20455;-83
2022/06/28 03:19:57;;;;;;;59.87;4.10;;;;;;;;;;5052339;28;20447;-84
2022/06/28 03:22:26;;;;;;;62.90;3.97;;;;;;;;;;5052194;28;20494;-83
2022/06/28 03:24:53;;;;;;;58.90;3.40;;;;;;;;;;5047119;28;20448;-84
2022/06/28 03:27:21;;;;;;;59.57;4.17;;;;;;;;;;5032259;28;20497;-84
2022/06/28 03:29:51;;;;;;;59.77;3.97;;;;;;;;;;5046368;28;20435;-85
2022/06/28 03:32:18;;;;;;;62.87;4.73;;;;;;;;;;5052166;28;20895;-84
2022/06/28 03:34:45;;;;;;;61.77;4.30;;;;;;;;;;5052435;28;20435;-84
2022/06/28 03:37:13;;;;;;;63.30;5.23;;;;;;;;;;5052018;28;20569;-83
2022/06/28 03:39:41;;;;;;;60.37;4.10;;;;;;;;;;5052528;28;20467;-84
2022/06/28 03:42:09;;;;;;;63.43;4.27;;;;;;;;;;5056214;28;20521;-84
2022/06/28 03:44:36;;;;;;;62.03;4.00;;;;;;;;;;5056523;28;21000;-84
2022/06/28 03:47:03;;;;;;;59.57;3.77;;;;;;;;;;5055928;28;20493;-85
2022/06/28 03:49:31;;;;;;;60.37;4.10;;;;;;;;;;5055787;28;20439;-83
2022/06/28 03:51:58;;;;;;;60.70;3.80;;;;;;;;;;5056097;28;20531;-84
2022/06/28 03:54:26;;;;;;;59.27;3.47;;;;;;;;;;5056449;28;20435;-83
2022/06/28 03:56:54;;;;;;;60.40;4.07;;;;;;;;;;5056434;28;20519;-83
2022/06/28 03:59:21;;;;;;;59.90;3.77;;;;;;;;;;5055685;28;20502;-84
2022/06/28 04:01:49;;;;;;;59.67;3.80;;;;;;;;;;5055846;28;20909;-83
2022/06/28 04:04:16;;;;;;;59.20;3.67;;;;;;;;;;5056019;28;20878;-83
2022/06/28 04:06:43;;;;;;;59.80;3.80;;;;;;;;;;5055710;28;20996;-83
2022/06/28 04:09:11;;;;;;;64.60;4.67;;;;;;;;;;5055427;28;20439;-83
2022/06/28 04:11:38;;;;;;;59.00;3.47;;;;;;;;;;5055444;28;20529;-83
2022/06/28 04:14:06;;;;;;;59.67;4.10;;;;;;;;;;5055623;28;20836;-83
2022/06/28 04:16:34;;;;;;;59.83;4.00;;;;;;;;;;5055689;28;20482;-83
2022/06/28 04:19:01;;;;;;;59.60;4.03;;;;;;;;;;5055486;28;20441;-83
2022/06/28 04:21:29;;;;;;;59.90;4.00;;;;;;;;;;5055585;28;20888;-83
2022/06/28 04:23:56;;;;;;;62.97;3.70;;;;;;;;;;5055212;28;20489;-83
2022/06/28 04:26:23;;;;;;;59.43;4.00;;;;;;;;;;5055488;28;20445;-83
2022/06/28 04:28:50;;;;;;;64.10;4.30;;;;;;;;;;5055405;28;20475;-83
2022/06/28 04:31:19;;;;;;;60.20;4.27;;;;;;;;;;5055291;28;20463;-83
2022/06/28 04:33:46;;;;;;;62.50;4.20;;;;;;;;;;5055317;28;20437;-83
2022/06/28 04:36:14;;;;;;;60.97;4.70;;;;;;;;;;5055220;28;20839;-83
2022/06/28 04:38:41;;;;;;;60.50;3.60;;;;;;;;;;5054741;28;20502;-83
2022/06/28 04:41:10;;;;;;;59.87;4.10;;;;;;;;;;5053993;28;20541;-83
2022/06/28 04:43:37;;;;;;;62.00;4.77;;;;;;;;;;5054905;28;20831;-83
2022/06/28 04:46:05;;;;;;;59.23;3.87;;;;;;;;;;5055193;28;20494;-83
2022/06/28 04:48:34;;;;;;;59.60;3.87;;;;;;;;;;5055692;28;20539;-83
2022/06/28 04:51:10;;;;;;;59.47;3.73;;;;;;;;;;5054611;28;20467;-83
2022/06/28 04:53:39;;;;;;;59.70;4.20;;;;;;;;;;5056667;28;20460;-83
2022/06/28 04:56:06;;;;;;;61.87;4.53;;;;;;;;;;5055540;28;20531;-83
2022/06/28 04:58:33;;;;;;;59.57;3.57;;;;;;;;;;5054783;28;20459;-83
2022/06/28 05:01:01;;;;;;;59.77;3.83;;;;;;;;;;5055233;28;20460;-82
2022/06/28 05:03:28;;;;;;;59.20;3.70;;;;;;;;;;5055073;28;21189;-83
2022/06/28 05:05:57;;;;;;;61.83;4.40;;;;;;;;;;5055254;28;20441;-83
2022/06/28 05:08:25;;;;;;;59.67;3.83;;;;;;;;;;5055037;28;20498;-83
2022/06/28 05:10:52;;;;;;;59.30;3.50;;;;;;;;;;5055390;28;20467;-83
2022/06/28 05:13:19;;;;;;;59.90;3.77;;;;;;;;;;5055300;28;20499;-83
2022/06/28 05:15:47;;;;;;;60.00;3.67;;;;;;;;;;5056123;28;20501;-83
2022/06/28 05:18:14;;;;;;;59.00;2.90;;;;;;;;;;5055083;28;20433;-83
2022/06/28 05:20:41;;;;;;;58.97;3.57;;;;;;;;;;5055863;28;20465;-83
2022/06/28 05:23:10;;;;;;;59.10;3.10;;;;;;;;;;5055634;28;20473;-83
2022/06/28 05:25:37;;;;;;;59.97;3.90;;;;;;;;;;5055022;28;20515;-83
2022/06/28 05:28:04;;;;;;;59.20;3.57;;;;;;;;;;5054600;28;20438;-83
2022/06/28 05:30:32;;;;;;;59.10;3.37;;;;;;;;;;5055573;28;20461;-83
2022/06/28 05:33:01;;;;;;;60.40;3.60;;;;;;;;;;5055582;28;20944;-83
2022/06/28 05:35:28;;;;;;;59.60;4.10;;;;;;;;;;5055889;28;20479;-82
2022/06/28 05:37:55;;;;;;;59.80;4.30;;;;;;;;;;5054629;28;20456;-83
2022/06/28 05:40:24;;;;;;;59.80;4.10;;;;;;;;;;5056183;28;20440;-83
2022/06/28 05:42:51;;;;;;;59.30;4.07;;;;;;;;;;5055532;28;20540;-83
2022/06/28 05:45:19;;;;;;;59.77;3.90;;;;;;;;;;5055203;28;20441;-83
2022/06/28 05:47:46;;;;;;;60.10;4.27;;;;;;;;;;5054939;28;20476;-83
2022/06/28 05:50:14;;;;;;;61.40;4.37;;;;;;;;;;5057017;28;20882;-83
2022/06/28 05:52:41;;;;;;;59.77;4.30;;;;;;;;;;5054547;28;20457;-84
2022/06/28 05:55:08;;;;;;;59.37;3.80;;;;;;;;;;5054856;28;20438;-82
2022/06/28 05:57:37;;;;;;;60.37;4.33;;;;;;;;;;5053714;28;20453;-83
2022/06/28 06:00:05;;;;;;;59.90;4.10;;;;;;;;;;5055550;28;20464;-83
2022/06/28 06:02:32;;;;;;;60.67;4.83;;;;;;;;;;5054823;28;20501;-81
2022/06/28 06:05:02;;;;;;;60.30;4.80;;;;;;;;;;5057341;28;20482;-82
2022/06/28 06:07:30;;;;;;;59.77;4.43;;;;;;;;;;5055739;28;20529;-83
2022/06/28 06:09:57;;;;;;;60.80;4.50;;;;;;;;;;5055076;28;20894;-83
2022/06/28 06:12:24;;;;;;;59.87;4.70;;;;;;;;;;5055751;28;20463;-83
2022/06/28 06:14:53;;;;;;;60.33;4.90;;;;;;;;;;5055001;28;20485;-84
2022/06/28 06:17:20;;;;;;;60.57;5.40;;;;;;;;;;5055929;28;20433;-83
2022/06/28 06:19:48;;;;;;;60.30;4.93;;;;;;;;;;5056463;28;20441;-83
2022/06/28 06:22:15;;;;;;;60.77;5.27;;;;;;;;;;5056446;28;20543;-83
2022/06/28 06:24:42;;;;;;;61.00;5.10;;;;;;;;;;5054788;28;20450;-83
2022/06/28 06:27:09;;;;;;;60.80;4.70;;;;;;;;;;5054882;28;20500;-83
2022/06/28 06:29:37;;;;;;;60.90;5.37;;;;;;;;;;5056389;28;20442;-82
2022/06/28 06:32:06;;;;;;;61.20;5.50;;;;;;;;;;5054820;28;20476;-84
2022/06/28 06:34:33;;;;;;;60.87;5.13;;;;;;;;;;5054998;28;20446;-83
2022/06/28 06:37:01;;;;;;;60.87;5.37;;;;;;;;;;5054404;28;20436;-84
2022/06/28 06:39:28;;;;;;;60.97;5.17;;;;;;;;;;5054300;28;20953;-85
2022/06/28 06:41:55;;;;;;;61.50;5.83;;;;;;;;;;5052917;28;20511;-84
2022/06/28 06:44:22;;;;;;;61.10;5.70;;;;;;;;;;5052229;28;20506;-85
2022/06/28 06:46:50;;;;;;;60.47;4.60;;;;;;;;;;5052358;28;20439;-85
2022/06/28 06:49:19;;;;;;;61.20;4.90;;;;;;;;;;5052179;28;20439;-85
2022/06/28 06:51:48;;;;;;;61.47;4.87;;;;;;;;;;5052141;28;20866;-85
2022/06/28 06:54:16;;;;;;;61.50;5.40;;;;;;;;;;5052152;28;20439;-87
2022/06/28 06:56:46;;;;;;;60.80;5.20;;;;;;;;;;5052314;28;20443;-87
2022/06/28 06:59:16;;;;;;;61.07;4.93;;;;;;;;;;5052386;28;20486;-87
2022/06/28 07:01:43;;;;;;;61.60;5.03;;;;;;;;;;5053005;28;20977;-87
2022/06/28 07:04:11;;;;;;;61.20;4.87;;;;;;;;;;5052149;28;20530;-86
2022/06/28 07:06:40;;;;;;;61.00;5.00;;;;;;;;;;5052979;28;20486;-87
2022/06/28 07:09:07;;;;;;;62.03;5.00;;;;;;;;;;5052128;28;20930;-87
2022/06/28 07:11:34;;;;;;;61.80;5.50;;;;;;;;;;5052196;28;21028;-87
2022/06/28 07:14:02;;;;;;;60.33;5.17;;;;;;;;;;5053007;28;20515;-87
2022/06/28 07:16:29;;;;;;;61.80;5.43;;;;;;;;;;5056472;28;20468;-87
2022/06/28 07:18:56;;;;;;;60.80;4.90;;;;;;;;;;5056488;28;20452;-87
2022/06/28 07:21:23;;;;;;;60.20;4.30;;;;;;;;;;5056758;28;20865;-87
2022/06/28 07:23:52;;;;;;;70.73;5.40;;;;;;;;;;5057353;28;20479;-87
2022/06/28 07:26:19;;;;;;;60.43;4.80;;;;;;;;;;5057386;28;20493;-87
2022/06/28 07:28:48;;;;;;;60.37;4.83;;;;;;;;;;5076011;28;20433;-88
2022/06/28 07:31:15;;;;;;;60.67;4.57;;;;;;;;;;5073016;28;20455;-88
2022/06/28 07:33:43;;;;;;;61.90;5.53;;;;;;;;;;5073085;28;20462;-85
2022/06/28 07:36:10;;;;;;;60.07;4.80;;;;;;;;;;5064474;28;20482;-86
2022/06/28 07:38:37;;;;;;;60.57;4.53;;;;;;;;;;5056222;28;20509;-86
2022/06/28 07:41:06;;;;;;;61.17;4.67;;;;;;;;;;5056114;28;20460;-86
2022/06/28 07:43:33;;;;;;;61.27;4.53;;;;;;;;;;5055805;28;20475;-86
2022/06/28 07:46:01;;;;;;;61.70;4.90;;;;;;;;;;5055788;28;20969;-86
2022/06/28 07:48:28;;;;;;;61.90;5.20;;;;;;;;;;5052377;28;20439;-87
2022/06/28 07:53:40;;;;;;;60.23;5.07;;;;;;;;;;5055592;28;20547;-86
2022/06/28 07:56:09;;;;;;;60.57;4.90;;;;;;;;;;5055606;28;20923;-87
2022/06/28 07:58:39;;;;;;;60.73;5.10;;;;;;;;;;5055023;28;20444;-87
2022/06/28 08:01:07;;;;;;;63.37;4.73;;;;;;;;;;5055405;28;20537;-87
2022/06/28 08:03:34;;;;;;;59.40;4.23;;;;;;;;;;5055303;28;20571;-86
2022/06/28 08:06:01;;;;;;;60.87;4.90;;;;;;;;;;5055368;28;20493;-88
2022/06/28 08:08:29;;;;;;;59.47;4.40;;;;;;;;;;5055192;28;20513;-86
2022/06/28 08:10:56;;;;;;;60.20;5.07;;;;;;;;;;5055421;28;20975;-88
2022/06/28 08:13:25;;;;;;;60.60;4.13;;;;;;;;;;5055272;28;21239;-87
2022/06/28 08:15:52;;;;;;;59.67;3.93;;;;;;;;;;5055140;28;20527;-87
2022/06/28 08:18:19;;;;;;;60.67;5.00;;;;;;;;;;5055370;28;20473;-86
2022/06/28 08:20:47;;;;;;;60.93;5.10;;;;;;;;;;5055018;28;20452;-86
2022/06/28 08:23:14;;;;;;;60.17;4.47;;;;;;;;;;5055060;28;20828;-86
2022/06/28 08:25:42;;;;;;;59.67;4.10;;;;;;;;;;5054129;28;20492;-87
2022/06/28 08:28:10;;;;;;;59.80;4.30;;;;;;;;;;5055010;28;21125;-87
2022/06/28 08:30:39;;;;;;;59.80;3.63;;;;;;;;;;5054719;28;20460;-86
2022/06/28 08:33:06;;;;;;;62.00;4.13;;;;;;;;;;5054744;28;20505;-86
2022/06/28 08:35:34;;;;;;;60.00;3.73;;;;;;;;;;5054566;28;20486;-87
2022/06/28 08:38:01;;;;;;;59.47;3.67;;;;;;;;;;5054572;28;20452;-86
2022/06/28 08:40:29;;;;;;;59.53;3.63;;;;;;;;;;5054499;28;20924;-87
2022/06/28 08:42:57;;;;;;;64.63;3.80;;;;;;;;;;5054676;28;20479;-86
2022/06/28 08:45:25;;;;;;;59.30;3.50;;;;;;;;;;5054565;28;20447;-86
2022/06/28 08:47:54;;;;;;;59.50;3.90;;;;;;;;;;5054145;28;20476;-85
2022/06/28 08:50:28;;;;;;;59.27;3.57;;;;;;;;;;5054361;28;20433;-85
2022/06/28 08:52:56;;;;;;;59.13;3.80;;;;;;;;;;5054391;28;20435;-85
2022/06/28 08:55:24;;;;;;;61.00;4.30;;;;;;;;;;5054314;28;20432;-83
2022/06/28 08:57:51;;;;;;;59.33;3.80;;;;;;;;;;5053998;28;20858;-83
2022/06/28 09:00:18;;;;;;;59.20;3.40;;;;;;;;;;5054180;28;20433;-84
2022/06/28 09:02:46;;;;;;;59.37;3.70;;;;;;;;;;5054240;28;20487;-83
2022/06/28 09:05:16;;;;;;;59.90;3.80;;;;;;;;;;5054493;28;20927;-86
2022/06/28 09:07:45;;;;;;;59.00;3.30;;;;;;;;;;5054143;28;20511;-86
2022/06/28 09:10:12;;;;;;;58.47;3.33;;;;;;;;;;5054771;28;20440;-83
2022/06/28 09:12:39;;;;;;;59.57;3.10;;;;;;;;;;5054878;28;20464;-83
2022/06/28 09:15:07;;;;;;;58.30;3.30;;;;;;;;;;5054785;28;20989;-82
2022/06/28 09:17:35;;;;;;;58.30;3.40;;;;;;;;;;5048460;28;20457;-83
2022/06/28 09:20:04;;;;;;;59.10;3.37;;;;;;;;;;5054521;28;20437;-83
2022/06/28 09:22:34;;;;;;;59.90;3.10;;;;;;;;;;5054411;28;20975;-83
2022/06/28 09:25:02;;;;;;;59.57;3.00;;;;;;;;;;5054065;28;20605;-83
2022/06/28 09:27:31;;;;;;;58.40;3.10;;;;;;;;;;5053864;28;20437;-83
2022/06/28 09:29:58;;;;;;;58.70;2.97;;;;;;;;;;5053995;28;20486;-83
2022/06/28 09:32:30;;;;;;;58.70;2.90;;;;;;;;;;5053688;28;20461;-83
2022/06/28 09:34:58;;;;;;;59.83;3.07;;;;;;;;;;5053874;28;20446;-83
2022/06/28 09:37:37;;;;;;;59.20;3.20;;;;;;;;;;5054296;28;20460;-82
2022/06/28 09:40:11;;;;;;;60.23;2.97;;;;;;;;;;5056104;28;20484;-83
2022/06/28 09:42:39;;;;;;;58.80;2.90;;;;;;;;;;5056503;28;20447;-82
2022/06/28 09:45:06;;;;;;;58.87;3.37;;;;;;;;;;5053955;28;20472;-83
2022/06/28 09:47:34;;;;;;;58.07;3.20;;;;;;;;;;5054363;28;20485;-83
2022/06/28 09:50:01;;;;;;;59.37;3.27;;;;;;;;;;5053724;28;20823;-83
2022/06/28 09:52:29;;;;;;;58.87;3.13;;;;;;;;;;5053707;28;20509;-83
2022/06/28 09:54:59;;;;;;;58.77;2.97;;;;;;;;;;5053591;28;20442;-84
2022/06/28 09:57:26;;;;;;;59.27;2.93;;;;;;;;;;5054045;28;20537;-84
2022/06/28 09:59:54;;;;;;;58.80;2.83;;;;;;;;;;5054401;28;20876;-83
2022/06/28 10:02:21;;;;;;;58.00;2.57;;;;;;;;;;5053487;28;20969;-83
2022/06/28 10:04:49;;;;;;;58.00;2.40;;;;;;;;;;5052805;28;21044;-84
2022/06/28 10:07:16;;;;;;;58.43;2.70;;;;;;;;;;5052506;28;20436;-84
2022/06/28 10:09:44;;;;;;;59.80;2.70;;;;;;;;;;5052629;28;20829;-84
2022/06/28 10:15:04;;;;;;;58.27;2.50;;;;;;;;;;5052740;28;20419;-84
2022/06/28 10:17:44;;;;;;;57.80;2.67;;;;;;;;;;5052928;28;20864;-84
2022/06/28 10:20:12;;;;;;;58.10;2.83;;;;;;;;;;5052801;28;20423;-83
2022/06/28 10:22:39;;;;;;;58.40;2.50;;;;;;;;;;5052814;28;20953;-84
2022/06/28 10:25:15;;;;;;;58.57;2.77;;;;;;;;;;5052561;28;20480;-85
2022/06/28 10:27:47;;;;;;;59.10;2.93;;;;;;;;;;5052632;28;20471;-84
2022/06/28 10:30:25;;;;;;;58.17;2.40;;;;;;;;;;5052435;28;20421;-85
2022/06/28 10:32:53;;;;;;;58.20;2.40;;;;;;;;;;5052450;28;20478;-85
2022/06/28 10:35:38;;;;;;;58.13;2.30;;;;;;;;;;5052761;28;20961;-86
2022/06/28 10:38:17;;;;;;;58.27;2.60;;;;;;;;;;5048916;28;20460;-87
2022/06/28 10:40:49;;;;;;;58.40;2.30;;;;;;;;;;5052700;28;20970;-86
2022/06/28 10:43:17;;;;;;;57.80;2.50;;;;;;;;;;5052723;28;20433;-87
2022/06/28 10:46:06;;;;;;;57.73;2.80;;;;;;;;;;5052617;28;20514;-87
2022/06/28 10:48:33;;;;;;;57.57;2.13;;;;;;;;;;5030663;28;20794;-87
2022/06/28 10:51:01;;;;;;;57.27;1.97;;;;;;;;;;5032533;28;20469;-87
2022/06/28 10:53:31;;;;;;;57.37;2.50;;;;;;;;;;5032602;28;20843;-84
2022/06/28 10:56:14;;;;;;;59.30;2.20;;;;;;;;;;5032517;28;20495;-86
2022/06/28 10:58:54;;;;;;;57.67;2.10;;;;;;;;;;5032099;28;20449;-85
2022/06/28 11:01:43;;;;;;;57.70;2.30;;;;;;;;;;5032619;28;20464;-85
2022/06/28 11:04:11;;;;;;;57.70;2.20;;;;;;;;;;5032267;28;20481;-83
2022/06/28 11:06:41;;;;;;;58.00;2.33;;;;;;;;;;5033876;28;20437;-83
2022/06/28 11:09:10;;;;;;;57.30;2.10;;;;;;;;;;5051277;28;20433;-83
2022/06/28 11:11:58;;;;;;;57.97;2.27;;;;;;;;;;5052487;28;20468;-84
2022/06/28 11:14:30;;;;;;;57.67;2.30;;;;;;;;;;5051833;28;20932;-83
2022/06/28 11:16:59;;;;;;;57.23;2.10;;;;;;;;;;5052138;28;20433;-84
2022/06/28 11:19:26;;;;;;;57.07;1.90;;;;;;;;;;5051586;28;20491;-84
2022/06/28 11:21:55;;;;;;;57.70;2.20;;;;;;;;;;5051750;28;20533;-86
2022/06/28 11:24:23;;;;;;;57.37;2.30;;;;;;;;;;5051860;28;20676;-82
2022/06/28 11:29:37;;;;;;;58.77;2.33;;;;;;;;;;5052039;28;20399;-84
2022/06/28 11:32:15;;;;;;;57.63;2.20;;;;;;;;;;5051928;28;20513;-84
2022/06/28 11:34:43;;;;;;;58.00;2.43;;;;;;;;;;5051956;28;20421;-86
2022/06/28 11:37:10;;;;;;;58.27;2.77;;;;;;;;;;5051958;28;21265;-87
2022/06/28 11:39:38;;;;;;;58.10;2.10;;;;;;;;;;5052075;28;20467;-85
2022/06/28 11:42:05;;;;;;;58.80;2.40;;;;;;;;;;5051827;28;20514;-84
2022/06/28 11:44:32;;;;;;;59.07;2.20;;;;;;;;;;5051817;28;20472;-86
2022/06/28 11:47:03;;;;;;;57.97;2.30;;;;;;;;;;5051741;28;20849;-84
2022/06/28 11:49:31;;;;;;;64.43;2.73;;;;;;;;;;5051491;28;20485;-85
2022/06/28 11:51:58;;;;;;;57.90;2.17;;;;;;;;;;5051988;28;20468;-85
2022/06/28 11:54:26;;;;;;;57.93;2.43;;;;;;;;;;5051797;28;20814;-85
2022/06/28 11:56:53;;;;;;;58.00;2.00;;;;;;;;;;5052275;28;20498;-85
2022/06/28 11:59:21;;;;;;;57.90;2.30;;;;;;;;;;5052321;28;20855;-84
2022/06/28 12:01:49;;;;;;;58.27;2.43;;;;;;;;;;5053782;28;20895;-88
2022/06/28 12:04:22;;;;;;;57.97;2.17;;;;;;;;;;5058643;28;20476;-88
2022/06/28 12:06:49;;;;;;;60.47;2.30;;;;;;;;;;5071800;28;20462;-88
2022/06/28 12:09:17;;;;;;;58.00;2.10;;;;;;;;;;5066253;28;20445;-85
2022/06/28 12:11:47;;;;;;;58.10;2.03;;;;;;;;;;5062759;28;20483;-86
2022/06/28 12:14:16;;;;;;;57.57;2.00;;;;;;;;;;5062236;28;20571;-84
2022/06/28 12:16:45;;;;;;;57.60;1.97;;;;;;;;;;5055926;28;20483;-87
2022/06/28 12:19:14;;;;;;;57.57;2.03;;;;;;;;;;5055384;28;20519;-86
2022/06/28 12:21:56;;;;;;;57.37;1.90;;;;;;;;;;5060076;28;20509;-85
2022/06/28 12:24:38;;;;;;;57.90;2.20;;;;;;;;;;5054968;28;20479;-85
2022/06/28 12:27:07;;;;;;;57.57;2.10;;;;;;;;;;5055041;28;21028;-87
2022/06/28 12:29:35;;;;;;;57.57;1.97;;;;;;;;;;5055289;28;20429;-87
2022/06/28 12:32:02;;;;;;;57.70;2.20;;;;;;;;;;5054874;28;20445;-86
2022/06/28 12:34:29;;;;;;;57.67;2.10;;;;;;;;;;5055014;28;20444;-85
2022/06/28 12:36:57;;;;;;;57.60;2.00;;;;;;;;;;5052524;28;20428;-86
2022/06/28 12:39:24;;;;;;;57.83;2.30;;;;;;;;;;5032824;28;20417;-84
2022/06/28 12:41:52;;;;;;;58.63;2.20;;;;;;;;;;5032871;28;20461;-85
2022/06/28 12:44:20;;;;;;;57.60;2.17;;;;;;;;;;5032688;28;20874;-84
2022/06/28 12:46:48;;;;;;;57.77;2.27;;;;;;;;;;5033095;28;20980;-85
2022/06/28 12:49:15;;;;;;;57.80;2.20;;;;;;;;;;5032613;28;20445;-85
2022/06/28 12:51:42;;;;;;;59.50;2.20;;;;;;;;;;5032621;28;20984;-84
2022/06/28 12:54:09;;;;;;;57.57;2.20;;;;;;;;;;5034127;28;20437;-84
2022/06/28 12:56:37;;;;;;;57.70;2.07;;;;;;;;;;5034481;28;20503;-85
2022/06/28 12:59:04;;;;;;;57.90;2.40;;;;;;;;;;5033972;28;20781;-85
2022/06/28 13:01:33;;;;;;;57.90;2.10;;;;;;;;;;5034265;28;20460;-86
2022/06/28 13:04:00;;;;;;;58.10;2.10;;;;;;;;;;5034575;28;20971;-86
2022/06/28 13:06:29;;;;;;;58.97;2.40;;;;;;;;;;5034337;28;20464;-87
2022/06/28 13:08:56;;;;;;;58.10;2.40;;;;;;;;;;5034422;28;20580;-87
2022/06/28 13:11:24;;;;;;;58.77;2.27;;;;;;;;;;5034279;28;21053;-86
2022/06/28 13:13:52;;;;;;;57.97;2.50;;;;;;;;;;5034398;28;20882;-88
2022/06/28 13:16:19;;;;;;;57.80;2.00;;;;;;;;;;5034455;28;20492;-87
2022/06/28 13:18:48;;;;;;;57.67;2.10;;;;;;;;;;5034033;28;20523;-85
2022/06/28 13:21:15;;;;;;;58.97;2.30;;;;;;;;;;5034253;28;20454;-87
2022/06/28 13:23:42;;;;;;;57.77;2.00;;;;;;;;;;5034316;28;20440;-87
2022/06/28 13:26:10;;;;;;;57.63;2.17;;;;;;;;;;5034112;28;20481;-90
2022/06/28 13:28:37;;;;;;;57.93;2.17;;;;;;;;;;5033610;28;20433;-87
2022/06/28 13:31:04;;;;;;;60.13;2.10;;;;;;;;;;5033787;28;20457;-87
2022/06/28 13:33:31;;;;;;;57.80;2.10;;;;;;;;;;5033658;28;20434;-84
2022/06/28 13:36:00;;;;;;;57.47;1.90;;;;;;;;;;5033588;28;20445;-85
2022/06/28 13:38:27;;;;;;;57.40;2.00;;;;;;;;;;5033195;28;20457;-86
2022/06/28 13:40:55;;;;;;;57.80;2.40;;;;;;;;;;5033912;28;20898;-86
2022/06/28 13:43:35;;;;;;;57.37;2.10;;;;;;;;;;5033911;28;20512;-86
2022/06/28 13:46:03;;;;;;;57.40;2.23;;;;;;;;;;5033430;28;20569;-85
2022/06/28 13:48:30;;;;;;;57.50;2.00;;;;;;;;;;5033210;28;20499;-86
2022/06/28 13:50:57;;;;;;;59.77;2.27;;;;;;;;;;5033477;28;20504;-85
2022/06/28 13:53:26;;;;;;;57.80;2.37;;;;;;;;;;5033770;28;20453;-86
2022/06/28 13:55:54;;;;;;;57.60;2.10;;;;;;;;;;5033343;28;20441;-86
2022/06/28 13:58:21;;;;;;;57.40;2.00;;;;;;;;;;5033277;28;20576;-87
2022/06/28 14:00:49;;;;;;;57.30;1.90;;;;;;;;;;5033424;28;20476;-85
2022/06/28 14:03:16;;;;;;;57.77;2.03;;;;;;;;;;5033087;28;20433;-87
2022/06/28 14:05:46;;;;;;;57.70;2.20;;;;;;;;;;5033182;28;20550;-86
2022/06/28 14:08:14;;;;;;;57.77;2.17;;;;;;;;;;5033287;28;20457;-86
2022/06/28 14:10:42;;;;;;;57.30;2.00;;;;;;;;;;5033098;28;21016;-86
2022/06/28 14:13:10;;;;;;;57.70;2.20;;;;;;;;;;5033268;28;20460;-82
2022/06/28 14:15:37;;;;;;;58.03;2.30;;;;;;;;;;5032780;28;20449;-86
2022/06/28 14:18:05;;;;;;;57.67;2.37;;;;;;;;;;5032559;28;21101;-86
2022/06/28 14:20:32;;;;;;;57.77;2.33;;;;;;;;;;5032622;28;20465;-86
2022/06/28 14:22:59;;;;;;;58.10;2.10;;;;;;;;;;5032794;28;20464;-86
2022/06/28 14:25:27;;;;;;;57.73;2.40;;;;;;;;;;5031835;28;20480;-85
2022/06/28 14:27:55;;;;;;;57.60;2.10;;;;;;;;;;5032304;28;20437;-86
2022/06/28 14:30:22;;;;;;;58.20;2.50;;;;;;;;;;5032523;28;20532;-86
2022/06/28 14:32:50;;;;;;;57.67;2.20;;;;;;;;;;5032884;28;20437;-85
2022/06/28 14:35:17;;;;;;;57.60;2.10;;;;;;;;;;5032670;28;20449;-86
2022/06/28 14:37:44;;;;;;;59.60;2.40;;;;;;;;;;5032074;28;20472;-85
2022/06/28 14:40:12;;;;;;;58.07;2.30;;;;;;;;;;5032430;28;20441;-86
2022/06/28 14:42:39;;;;;;;57.40;1.90;;;;;;;;;;5032318;28;20445;-86
2022/06/28 14:45:09;;;;;;;57.63;2.30;;;;;;;;;;5032074;28;20476;-86
2022/06/28 14:47:38;;;;;;;57.27;2.13;;;;;;;;;;5032022;28;20529;-86
2022/06/28 14:50:06;;;;;;;57.43;2.20;;;;;;;;;;5032297;28;20520;-86
2022/06/28 14:52:33;;;;;;;58.77;2.20;;;;;;;;;;5032148;28;20453;-86
2022/06/28 14:55:01;;;;;;;57.47;1.90;;;;;;;;;;5032105;28;20499;-86